Time;durP1;ratioP1;P1;durP2;ratioP2;P2;SDS_P1;SDS_P2;PMS_P1;PMS_P2;Temp;Humidity;BMP_temperature;BMP_pressure;BME280_temperature;BME280_humidity;BME280_pressure;Samples;Min_cycle;Max_cycle;Signal;HPM_P1;HPM_P2
2022/10/25 00:01:14;;;;;;;22.48;14.20;;;;;;;;;;5138720;27;20035;-71
2022/10/25 00:03:40;;;;;;;24.35;14.98;;;;;;;;;;5139407;27;20042;-70
2022/10/25 00:06:08;;;;;;;27.52;17.88;;;;;;;;;;5139159;27;20092;-70
2022/10/25 00:08:34;;;;;;;22.52;15.70;;;;;;;;;;5139463;27;20045;-70
2022/10/25 00:11:00;;;;;;;22.20;16.25;;;;;;;;;;5138539;27;20092;-71
2022/10/25 00:13:26;;;;;;;28.40;17.42;;;;;;;;;;5140126;27;20062;-70
2022/10/25 00:15:52;;;;;;;28.33;18.15;;;;;;;;;;5140501;27;20059;-70
2022/10/25 00:18:18;;;;;;;26.00;16.90;;;;;;;;;;5144654;27;20062;-70
2022/10/25 00:20:45;;;;;;;27.90;18.83;;;;;;;;;;5139653;27;20059;-70
2022/10/25 00:23:12;;;;;;;24.70;17.73;;;;;;;;;;5140417;27;20050;-70
2022/10/25 00:25:38;;;;;;;25.65;17.10;;;;;;;;;;5138751;27;20499;-71
2022/10/25 00:28:04;;;;;;;31.65;18.25;;;;;;;;;;5123115;27;20515;-70
2022/10/25 00:30:30;;;;;;;29.17;18.95;;;;;;;;;;5131723;27;20087;-70
2022/10/25 00:32:57;;;;;;;28.02;18.95;;;;;;;;;;5153287;27;20042;-70
2022/10/25 00:35:23;;;;;;;28.27;19.30;;;;;;;;;;5138900;27;20069;-69
2022/10/25 00:37:49;;;;;;;29.08;20.67;;;;;;;;;;5099384;27;20050;-71
2022/10/25 00:40:16;;;;;;;28.80;19.92;;;;;;;;;;5140568;27;20043;-70
2022/10/25 00:42:42;;;;;;;32.92;21.00;;;;;;;;;;5141325;27;20035;-70
2022/10/25 00:45:14;;;;;;;33.13;21.77;;;;;;;;;;5146257;27;20400;-70
2022/10/25 00:47:45;;;;;;;32.72;21.92;;;;;;;;;;5143514;27;20377;-70
2022/10/25 00:50:14;;;;;;;33.40;21.52;;;;;;;;;;5153947;27;20081;-70
2022/10/25 00:52:42;;;;;;;31.52;20.52;;;;;;;;;;5147504;27;20399;-70
2022/10/25 00:55:09;;;;;;;34.60;21.17;;;;;;;;;;5135837;27;20039;-69
2022/10/25 00:57:45;;;;;;;28.27;19.90;;;;;;;;;;5139050;27;20043;-70
2022/10/25 01:00:11;;;;;;;31.00;20.30;;;;;;;;;;5138167;27;20068;-70
2022/10/25 01:02:37;;;;;;;27.50;19.55;;;;;;;;;;5149604;27;20054;-70
2022/10/25 01:05:04;;;;;;;32.58;20.20;;;;;;;;;;5150440;27;20045;-71
2022/10/25 01:07:30;;;;;;;26.83;18.63;;;;;;;;;;5147751;27;20039;-70
2022/10/25 01:09:56;;;;;;;23.92;16.95;;;;;;;;;;5118369;27;20047;-70
2022/10/25 01:12:22;;;;;;;29.45;17.42;;;;;;;;;;5133834;27;20404;-70
2022/10/25 01:14:50;;;;;;;25.88;17.80;;;;;;;;;;5140685;27;20042;-70
2022/10/25 01:17:27;;;;;;;28.45;18.10;;;;;;;;;;5144537;27;20171;-69
2022/10/25 01:20:12;;;;;;;30.67;18.40;;;;;;;;;;5142298;27;20043;-70
2022/10/25 01:23:10;;;;;;;23.17;16.70;;;;;;;;;;5137280;27;20055;-70
2022/10/25 01:25:36;;;;;;;27.95;18.38;;;;;;;;;;5088826;27;20051;-70
2022/10/25 01:28:09;;;;;;;27.38;18.02;;;;;;;;;;5133890;27;20039;-69
2022/10/25 01:30:53;;;;;;;23.67;16.67;;;;;;;;;;5135026;27;20050;-70
2022/10/25 01:33:22;;;;;;;28.13;17.75;;;;;;;;;;5133195;27;20128;-70
2022/10/25 01:35:54;;;;;;;27.02;17.60;;;;;;;;;;5139933;27;20032;-71
2022/10/25 01:38:27;;;;;;;23.73;16.90;;;;;;;;;;5149810;27;20043;-70
2022/10/25 01:40:53;;;;;;;27.02;17.75;;;;;;;;;;5150925;27;20043;-70
2022/10/25 01:43:34;;;;;;;25.27;17.48;;;;;;;;;;5149093;27;20035;-69
2022/10/25 01:46:05;;;;;;;25.30;17.92;;;;;;;;;;5143507;27;20515;-70
2022/10/25 01:48:36;;;;;;;25.70;16.67;;;;;;;;;;5150529;27;20051;-70
2022/10/25 01:51:09;;;;;;;26.77;17.48;;;;;;;;;;5147475;27;20054;-70
2022/10/25 01:53:55;;;;;;;22.27;16.15;;;;;;;;;;5150384;27;20491;-70
2022/10/25 01:56:27;;;;;;;24.88;16.80;;;;;;;;;;5139315;27;20557;-70
2022/10/25 01:59:12;;;;;;;25.55;17.15;;;;;;;;;;5140616;27;20052;-70
2022/10/25 02:01:38;;;;;;;24.58;15.38;;;;;;;;;;5138494;27;20050;-70
2022/10/25 02:04:23;;;;;;;28.40;17.42;;;;;;;;;;5151542;27;20097;-70
2022/10/25 02:06:49;;;;;;;23.77;15.93;;;;;;;;;;5151828;27;20035;-70
2022/10/25 02:09:41;;;;;;;25.95;16.42;;;;;;;;;;5144614;27;20059;-71
2022/10/25 02:12:09;;;;;;;27.63;16.40;;;;;;;;;;5137973;27;20049;-70
2022/10/25 02:14:39;;;;;;;26.95;16.02;;;;;;;;;;5148950;27;20401;-71
2022/10/25 02:17:11;;;;;;;23.43;15.53;;;;;;;;;;5150398;27;20055;-70
2022/10/25 02:19:39;;;;;;;24.23;15.13;;;;;;;;;;5150942;27;20317;-70
2022/10/25 02:22:08;;;;;;;26.10;16.45;;;;;;;;;;5131855;27;20039;-70
2022/10/25 02:24:34;;;;;;;25.58;15.18;;;;;;;;;;5137976;27;20043;-71
2022/10/25 02:27:01;;;;;;;24.02;14.23;;;;;;;;;;5139273;27;20438;-70
2022/10/25 02:29:30;;;;;;;26.42;13.98;;;;;;;;;;5140875;27;20047;-71
2022/10/25 02:31:56;;;;;;;24.98;13.70;;;;;;;;;;5149660;27;20073;-71
2022/10/25 02:34:22;;;;;;;22.38;13.05;;;;;;;;;;5148059;27;20046;-70
2022/10/25 02:36:49;;;;;;;24.38;13.70;;;;;;;;;;5154716;27;20034;-70
2022/10/25 02:39:16;;;;;;;25.35;13.50;;;;;;;;;;5133914;27;20047;-70
2022/10/25 02:41:42;;;;;;;25.67;14.90;;;;;;;;;;5153618;27;20048;-70
2022/10/25 02:44:08;;;;;;;24.85;13.20;;;;;;;;;;5143598;27;20046;-70
2022/10/25 02:46:34;;;;;;;23.02;13.70;;;;;;;;;;5157089;27;20045;-70
2022/10/25 02:49:00;;;;;;;23.27;13.55;;;;;;;;;;5141056;27;20122;-70
2022/10/25 02:51:26;;;;;;;22.63;13.60;;;;;;;;;;5152608;27;20038;-70
2022/10/25 02:53:52;;;;;;;21.95;14.57;;;;;;;;;;5152072;27;20051;-71
2022/10/25 02:56:20;;;;;;;22.02;13.40;;;;;;;;;;5153076;27;20050;-70
2022/10/25 02:58:47;;;;;;;26.55;14.60;;;;;;;;;;5137035;27;20076;-70
2022/10/25 03:01:13;;;;;;;23.60;14.57;;;;;;;;;;5144740;27;20035;-70
2022/10/25 03:03:40;;;;;;;24.50;13.88;;;;;;;;;;5151173;27;20515;-70
2022/10/25 03:06:06;;;;;;;21.20;13.65;;;;;;;;;;5101909;27;20518;-70
2022/10/25 03:08:32;;;;;;;24.10;14.45;;;;;;;;;;5152603;27;20042;-71
2022/10/25 03:10:59;;;;;;;21.35;14.77;;;;;;;;;;5134580;27;20043;-70
2022/10/25 03:13:25;;;;;;;21.00;13.27;;;;;;;;;;5152036;27;20038;-70
2022/10/25 03:15:51;;;;;;;23.05;11.90;;;;;;;;;;5135385;27;20043;-70
2022/10/25 03:18:17;;;;;;;24.48;14.77;;;;;;;;;;5153752;27;20046;-70
2022/10/25 03:20:43;;;;;;;23.38;14.60;;;;;;;;;;5144196;27;20047;-71
2022/10/25 03:23:10;;;;;;;22.85;13.82;;;;;;;;;;5150430;27;20047;-70
2022/10/25 03:25:36;;;;;;;22.13;14.13;;;;;;;;;;5139204;27;20134;-70
2022/10/25 03:28:02;;;;;;;22.30;14.45;;;;;;;;;;5136205;27;20392;-70
2022/10/25 03:30:29;;;;;;;25.92;15.77;;;;;;;;;;5152388;27;20087;-70
2022/10/25 03:32:55;;;;;;;24.35;13.90;;;;;;;;;;5148351;27;20104;-70
2022/10/25 03:35:21;;;;;;;27.55;15.63;;;;;;;;;;5134537;27;20039;-69
2022/10/25 03:37:48;;;;;;;21.67;15.18;;;;;;;;;;5136782;27;20078;-70
2022/10/25 03:40:14;;;;;;;22.33;14.77;;;;;;;;;;5141625;27;20039;-70
2022/10/25 03:42:40;;;;;;;22.85;14.45;;;;;;;;;;5143097;27;20042;-70
2022/10/25 03:45:06;;;;;;;23.00;15.32;;;;;;;;;;5152724;27;20030;-70
2022/10/25 03:47:32;;;;;;;29.40;15.68;;;;;;;;;;5149952;27;20542;-71
2022/10/25 03:49:58;;;;;;;25.60;15.05;;;;;;;;;;5133468;27;20063;-70
2022/10/25 03:52:24;;;;;;;23.15;15.27;;;;;;;;;;5149831;27;20039;-70
2022/10/25 03:54:50;;;;;;;27.83;15.82;;;;;;;;;;5142696;27;20043;-70
2022/10/25 03:57:16;;;;;;;30.17;16.05;;;;;;;;;;5144892;27;20065;-70
2022/10/25 03:59:43;;;;;;;22.55;15.80;;;;;;;;;;5136628;27;20404;-70
2022/10/25 04:02:09;;;;;;;21.95;16.17;;;;;;;;;;5147827;27;20491;-70
2022/10/25 04:04:35;;;;;;;24.77;15.93;;;;;;;;;;5140477;27;20035;-71
2022/10/25 04:07:01;;;;;;;22.23;15.35;;;;;;;;;;5147431;27;20034;-70
2022/10/25 04:09:27;;;;;;;25.73;15.48;;;;;;;;;;5141885;27;20439;-70
2022/10/25 04:11:53;;;;;;;24.95;15.60;;;;;;;;;;5139350;27;20047;-70
2022/10/25 04:14:20;;;;;;;26.05;15.40;;;;;;;;;;5148342;27;20035;-70
2022/10/25 04:16:46;;;;;;;25.35;15.18;;;;;;;;;;5133437;27;21983;-70
2022/10/25 04:19:12;;;;;;;25.50;14.98;;;;;;;;;;5098234;27;1054145;-70
2022/10/25 04:21:37;;;;;;;27.02;14.90;;;;;;;;;;5134647;27;20039;-69
2022/10/25 04:24:04;;;;;;;24.08;15.93;;;;;;;;;;5143911;27;20380;-70
2022/10/25 04:26:29;;;;;;;26.05;14.68;;;;;;;;;;5144707;27;20043;-69
2022/10/25 04:28:56;;;;;;;26.73;15.00;;;;;;;;;;5139933;27;20035;-70
2022/10/25 04:31:23;;;;;;;23.35;14.02;;;;;;;;;;5151770;27;20047;-69
2022/10/25 04:33:50;;;;;;;24.52;14.63;;;;;;;;;;5141526;27;20042;-70
2022/10/25 04:36:16;;;;;;;24.15;15.35;;;;;;;;;;5138715;27;20404;-70
2022/10/25 04:38:42;;;;;;;28.65;15.68;;;;;;;;;;5146532;27;20049;-70
2022/10/25 04:41:08;;;;;;;22.88;13.85;;;;;;;;;;5151252;27;20407;-70
2022/10/25 04:43:35;;;;;;;26.85;16.23;;;;;;;;;;5153250;27;20126;-70
2022/10/25 04:46:01;;;;;;;27.60;15.77;;;;;;;;;;5152094;27;20414;-71
2022/10/25 04:48:28;;;;;;;31.60;16.13;;;;;;;;;;5143250;27;20039;-70
2022/10/25 04:50:54;;;;;;;24.85;14.32;;;;;;;;;;5142319;27;20042;-70
2022/10/25 04:53:20;;;;;;;24.15;15.00;;;;;;;;;;5144867;27;20118;-70
2022/10/25 04:55:55;;;;;;;22.42;14.43;;;;;;;;;;5140148;27;20057;-70
2022/10/25 04:58:21;;;;;;;25.70;14.93;;;;;;;;;;5146914;27;20046;-71
2022/10/25 05:00:47;;;;;;;28.98;14.98;;;;;;;;;;5137407;27;20126;-70
2022/10/25 05:03:13;;;;;;;26.33;16.65;;;;;;;;;;5131596;27;20046;-70
2022/10/25 05:05:39;;;;;;;26.95;14.68;;;;;;;;;;5136916;27;20077;-70
2022/10/25 05:08:05;;;;;;;36.03;16.75;;;;;;;;;;5138849;27;20042;-70
2022/10/25 05:10:31;;;;;;;29.65;15.30;;;;;;;;;;5143529;27;20204;-70
2022/10/25 05:12:57;;;;;;;26.73;15.70;;;;;;;;;;5150515;27;20038;-70
2022/10/25 05:15:23;;;;;;;24.38;15.52;;;;;;;;;;5144229;27;20039;-70
2022/10/25 05:17:49;;;;;;;26.27;14.35;;;;;;;;;;5139335;27;20062;-71
2022/10/25 05:20:15;;;;;;;26.38;15.65;;;;;;;;;;5149926;27;20053;-70
2022/10/25 05:22:41;;;;;;;25.08;15.52;;;;;;;;;;5147330;27;20047;-70
2022/10/25 05:25:07;;;;;;;30.23;16.58;;;;;;;;;;5139942;27;20043;-70
2022/10/25 05:27:36;;;;;;;31.77;15.63;;;;;;;;;;5135095;27;20137;-70
2022/10/25 05:30:02;;;;;;;27.88;15.32;;;;;;;;;;5142514;27;20042;-70
2022/10/25 05:32:29;;;;;;;31.35;16.02;;;;;;;;;;5153959;27;20114;-71
2022/10/25 05:34:55;;;;;;;26.27;15.02;;;;;;;;;;5148345;27;20035;-70
2022/10/25 05:37:21;;;;;;;25.83;15.43;;;;;;;;;;5153498;27;20049;-70
2022/10/25 05:39:47;;;;;;;29.20;14.70;;;;;;;;;;5149385;27;20058;-70
2022/10/25 05:42:13;;;;;;;28.05;15.80;;;;;;;;;;5153904;27;20072;-71
2022/10/25 05:44:39;;;;;;;32.17;15.00;;;;;;;;;;5148550;27;20092;-70
2022/10/25 05:47:05;;;;;;;25.85;14.70;;;;;;;;;;5151202;27;20085;-70
2022/10/25 05:49:32;;;;;;;27.38;15.60;;;;;;;;;;5134159;27;20047;-70
2022/10/25 05:51:58;;;;;;;23.73;13.10;;;;;;;;;;5147851;27;20401;-70
2022/10/25 05:54:25;;;;;;;30.15;16.65;;;;;;;;;;5133347;27;20043;-70
2022/10/25 05:56:50;;;;;;;27.15;14.60;;;;;;;;;;5142993;27;20035;-70
2022/10/25 05:59:16;;;;;;;23.80;14.50;;;;;;;;;;5145080;27;20086;-70
2022/10/25 06:01:44;;;;;;;25.95;14.70;;;;;;;;;;5133903;27;20493;-70
2022/10/25 06:04:10;;;;;;;29.30;13.38;;;;;;;;;;5127316;27;20043;-70
2022/10/25 06:06:37;;;;;;;26.30;15.15;;;;;;;;;;5142537;27;20125;-70
2022/10/25 06:09:03;;;;;;;25.55;14.13;;;;;;;;;;5146752;27;20125;-70
2022/10/25 06:11:30;;;;;;;33.05;15.43;;;;;;;;;;5140795;27;20041;-70
2022/10/25 06:13:56;;;;;;;29.95;14.88;;;;;;;;;;5128817;27;20096;-71
2022/10/25 06:16:22;;;;;;;26.42;14.68;;;;;;;;;;5151596;27;20043;-70
2022/10/25 06:18:49;;;;;;;26.92;14.15;;;;;;;;;;5153224;27;20042;-70
2022/10/25 06:21:19;;;;;;;23.88;13.95;;;;;;;;;;5152682;27;20489;-70
2022/10/25 06:23:45;;;;;;;28.70;14.75;;;;;;;;;;5153124;27;20043;-70
2022/10/25 06:26:13;;;;;;;24.27;12.88;;;;;;;;;;5142664;27;20042;-70
2022/10/25 06:28:39;;;;;;;27.13;14.75;;;;;;;;;;5114066;28;20060;-70
2022/10/25 06:31:06;;;;;;;24.17;12.88;;;;;;;;;;5140629;27;20617;-70
2022/10/25 06:33:33;;;;;;;27.85;13.07;;;;;;;;;;5142720;27;20035;-70
2022/10/25 06:36:00;;;;;;;29.00;13.80;;;;;;;;;;5140444;27;20042;-70
2022/10/25 06:38:26;;;;;;;28.30;12.43;;;;;;;;;;5140770;27;20039;-70
2022/10/25 06:40:59;;;;;;;25.85;12.48;;;;;;;;;;5133153;27;20043;-70
2022/10/25 06:43:25;;;;;;;27.13;11.38;;;;;;;;;;5132047;27;20078;-70
2022/10/25 06:45:51;;;;;;;21.60;12.00;;;;;;;;;;5099139;27;20586;-70
2022/10/25 06:48:17;;;;;;;24.38;11.07;;;;;;;;;;5152317;27;20433;-70
2022/10/25 06:50:43;;;;;;;29.90;12.50;;;;;;;;;;5137898;27;20050;-70
2022/10/25 06:53:09;;;;;;;28.30;11.18;;;;;;;;;;5133345;27;20096;-70
2022/10/25 06:55:35;;;;;;;26.60;12.00;;;;;;;;;;5151273;27;20536;-70
2022/10/25 06:58:01;;;;;;;26.42;11.27;;;;;;;;;;5131338;27;20099;-70
2022/10/25 07:00:27;;;;;;;22.50;11.30;;;;;;;;;;5114192;28;20115;-70
2022/10/25 07:02:54;;;;;;;25.08;11.00;;;;;;;;;;5148287;27;20050;-71
2022/10/25 07:05:20;;;;;;;24.65;9.27;;;;;;;;;;5136305;27;20051;-70
2022/10/25 07:07:46;;;;;;;24.20;10.45;;;;;;;;;;5132479;28;20401;-69
2022/10/25 07:10:12;;;;;;;23.00;10.23;;;;;;;;;;5136077;27;20111;-69
2022/10/25 07:12:38;;;;;;;28.08;10.93;;;;;;;;;;5136428;27;20043;-69
2022/10/25 07:15:05;;;;;;;25.27;11.15;;;;;;;;;;5130589;27;20043;-70
2022/10/25 07:17:31;;;;;;;23.20;9.90;;;;;;;;;;5155266;27;20453;-70
2022/10/25 07:19:57;;;;;;;18.42;9.63;;;;;;;;;;5156631;27;20046;-70
2022/10/25 07:22:23;;;;;;;24.42;10.27;;;;;;;;;;5156955;27;20046;-70
2022/10/25 07:24:49;;;;;;;25.60;10.27;;;;;;;;;;5156738;27;20381;-70
2022/10/25 07:27:15;;;;;;;27.55;11.13;;;;;;;;;;5156523;27;20404;-70
2022/10/25 07:29:41;;;;;;;24.95;9.57;;;;;;;;;;5151520;27;20058;-70
2022/10/25 07:32:08;;;;;;;25.33;10.02;;;;;;;;;;5143485;27;20046;-70
2022/10/25 07:34:34;;;;;;;24.33;9.77;;;;;;;;;;5124567;27;20038;-70
2022/10/25 07:37:00;;;;;;;21.58;9.02;;;;;;;;;;5117460;27;20039;-70
2022/10/25 07:39:26;;;;;;;21.35;9.32;;;;;;;;;;5135014;27;20435;-70
2022/10/25 07:41:53;;;;;;;21.35;9.43;;;;;;;;;;5144210;27;20743;-70
2022/10/25 07:44:19;;;;;;;24.30;8.88;;;;;;;;;;5155109;27;20522;-71
2022/10/25 07:46:45;;;;;;;23.75;9.23;;;;;;;;;;5156265;27;20096;-69
2022/10/25 07:49:11;;;;;;;18.55;8.30;;;;;;;;;;5156540;27;20051;-70
2022/10/25 07:51:37;;;;;;;17.80;8.57;;;;;;;;;;5152583;27;20047;-69
2022/10/25 07:54:04;;;;;;;19.02;8.35;;;;;;;;;;5126278;27;20049;-70
2022/10/25 07:56:30;;;;;;;20.20;8.70;;;;;;;;;;5155042;27;20209;-70
2022/10/25 07:58:56;;;;;;;25.58;8.02;;;;;;;;;;5136938;27;20130;-70
2022/10/25 08:01:26;;;;;;;24.05;8.93;;;;;;;;;;5138350;27;20092;-70
2022/10/25 08:03:52;;;;;;;21.25;8.30;;;;;;;;;;5116741;27;20052;-70
2022/10/25 08:06:19;;;;;;;21.20;9.18;;;;;;;;;;5135068;27;20485;-69
2022/10/25 08:08:45;;;;;;;21.52;9.10;;;;;;;;;;5135186;27;20035;-69
2022/10/25 08:11:11;;;;;;;24.20;9.80;;;;;;;;;;5146232;27;20047;-70
2022/10/25 08:13:37;;;;;;;20.77;9.10;;;;;;;;;;5156030;27;20126;-71
2022/10/25 08:16:04;;;;;;;18.77;9.23;;;;;;;;;;5155279;27;20043;-70
2022/10/25 08:18:30;;;;;;;24.05;10.05;;;;;;;;;;5143058;27;20045;-70
2022/10/25 08:20:56;;;;;;;20.15;8.93;;;;;;;;;;5136488;27;20055;-70
2022/10/25 08:23:22;;;;;;;19.40;8.20;;;;;;;;;;5134800;27;20051;-70
2022/10/25 08:25:48;;;;;;;23.50;9.30;;;;;;;;;;5137064;27;20039;-70
2022/10/25 08:28:14;;;;;;;19.42;9.18;;;;;;;;;;5134917;27;20039;-70
2022/10/25 08:30:41;;;;;;;22.50;9.23;;;;;;;;;;5134923;27;20035;-71
2022/10/25 08:33:07;;;;;;;24.85;9.98;;;;;;;;;;5135569;27;20496;-70
2022/10/25 08:35:33;;;;;;;21.63;10.10;;;;;;;;;;5135851;27;20101;-70
2022/10/25 08:38:02;;;;;;;22.88;9.68;;;;;;;;;;5138687;27;20464;-70
2022/10/25 08:40:31;;;;;;;21.05;8.98;;;;;;;;;;5150927;27;20072;-70
2022/10/25 08:43:21;;;;;;;26.20;10.40;;;;;;;;;;5134354;27;20441;-70
2022/10/25 08:45:58;;;;;;;22.27;9.15;;;;;;;;;;5134699;27;20046;-70
2022/10/25 08:48:28;;;;;;;20.90;9.63;;;;;;;;;;5134601;27;20475;-69
2022/10/25 08:50:57;;;;;;;22.05;9.52;;;;;;;;;;5134241;27;20034;-69
2022/10/25 08:53:26;;;;;;;20.92;10.02;;;;;;;;;;5134478;27;20082;-70
2022/10/25 08:55:52;;;;;;;24.65;9.45;;;;;;;;;;5134448;27;20083;-70
2022/10/25 08:58:23;;;;;;;19.50;9.48;;;;;;;;;;5145655;27;20049;-70
2022/10/25 09:00:49;;;;;;;20.58;9.40;;;;;;;;;;5131352;27;20400;-70
2022/10/25 09:03:17;;;;;;;21.52;9.90;;;;;;;;;;5154894;27;20038;-70
2022/10/25 09:06:01;;;;;;;22.45;10.18;;;;;;;;;;5148417;27;20130;-69
2022/10/25 09:08:39;;;;;;;22.13;9.70;;;;;;;;;;5134102;27;20396;-70
2022/10/25 09:11:22;;;;;;;22.15;9.32;;;;;;;;;;5133758;27;20104;-70
2022/10/25 09:13:52;;;;;;;19.30;9.38;;;;;;;;;;5133816;27;20451;-70
2022/10/25 09:16:38;;;;;;;22.80;9.63;;;;;;;;;;5134139;27;20064;-70
2022/10/25 09:19:12;;;;;;;20.35;9.55;;;;;;;;;;5141446;27;20035;-70
2022/10/25 09:22:13;;;;;;;20.85;8.68;;;;;;;;;;5149782;27;20081;-69
2022/10/25 09:25:00;;;;;;;23.38;9.43;;;;;;;;;;5031104;28;20052;-70
2022/10/25 09:27:28;;;;;;;21.48;8.90;;;;;;;;;;5013991;28;20116;-70
2022/10/25 09:29:58;;;;;;;16.95;7.47;;;;;;;;;;5028654;28;20498;-70
2022/10/25 09:32:28;;;;;;;18.60;7.72;;;;;;;;;;5038936;28;20053;-70
2022/10/25 09:34:54;;;;;;;17.80;7.20;;;;;;;;;;5042054;28;20129;-70
2022/10/25 09:37:23;;;;;;;17.70;7.43;;;;;;;;;;5036832;28;20045;-70
2022/10/25 09:39:52;;;;;;;13.05;6.72;;;;;;;;;;5039629;28;20426;-70
2022/10/25 09:42:21;;;;;;;14.73;6.97;;;;;;;;;;5043994;28;20041;-70
2022/10/25 09:44:55;;;;;;;17.23;6.20;;;;;;;;;;5040949;28;20526;-70
2022/10/25 09:47:21;;;;;;;17.85;5.80;;;;;;;;;;5048263;28;20127;-70
2022/10/25 09:49:56;;;;;;;17.23;5.53;;;;;;;;;;5049518;28;20048;-70
2022/10/25 09:52:28;;;;;;;16.33;5.45;;;;;;;;;;5048874;28;20060;-69
2022/10/25 09:55:16;;;;;;;13.32;5.50;;;;;;;;;;5048931;28;20103;-70
2022/10/25 09:57:42;;;;;;;17.73;5.32;;;;;;;;;;5000733;28;20130;-69
2022/10/25 10:00:12;;;;;;;18.30;4.47;;;;;;;;;;5066704;28;20526;-70
2022/10/25 10:02:39;;;;;;;14.20;4.40;;;;;;;;;;5058579;28;20093;-70
2022/10/25 10:05:05;;;;;;;13.07;3.95;;;;;;;;;;5063173;28;20032;-69
2022/10/25 10:07:33;;;;;;;13.07;4.05;;;;;;;;;;5059656;28;20044;-70
2022/10/25 10:10:01;;;;;;;11.65;3.95;;;;;;;;;;5067403;28;20407;-70
2022/10/25 10:12:33;;;;;;;12.13;4.13;;;;;;;;;;5066611;28;20040;-71
2022/10/25 10:15:01;;;;;;;12.68;4.00;;;;;;;;;;5066663;28;20075;-70
2022/10/25 10:17:29;;;;;;;12.25;4.07;;;;;;;;;;5052384;28;20037;-70
2022/10/25 10:20:33;;;;;;;18.10;4.60;;;;;;;;;;5069029;28;20415;-71
2022/10/25 10:22:59;;;;;;;11.43;3.92;;;;;;;;;;5004599;28;20057;-73
2022/10/25 10:25:26;;;;;;;14.00;4.22;;;;;;;;;;5009228;28;20053;-70
2022/10/25 10:27:55;;;;;;;18.10;4.28;;;;;;;;;;5009349;28;20046;-70
2022/10/25 10:30:23;;;;;;;13.90;3.92;;;;;;;;;;5009447;28;20416;-70
2022/10/25 10:32:52;;;;;;;17.67;3.85;;;;;;;;;;5007901;28;20184;-69
2022/10/25 10:35:26;;;;;;;14.32;3.38;;;;;;;;;;5028176;28;20045;-70
2022/10/25 10:37:52;;;;;;;13.65;3.15;;;;;;;;;;5043691;28;20080;-69
2022/10/25 10:40:18;;;;;;;15.13;3.90;;;;;;;;;;5031502;28;20180;-69
2022/10/25 10:42:44;;;;;;;14.63;3.55;;;;;;;;;;5044810;28;20456;-70
2022/10/25 10:45:11;;;;;;;15.27;3.20;;;;;;;;;;5027705;28;20156;-70
2022/10/25 10:47:46;;;;;;;13.98;3.17;;;;;;;;;;5050929;28;20054;-70
2022/10/25 10:50:18;;;;;;;10.68;3.28;;;;;;;;;;5051499;28;20049;-69
2022/10/25 10:52:44;;;;;;;13.32;3.17;;;;;;;;;;5049805;27;20037;-69
2022/10/25 10:55:18;;;;;;;11.85;3.17;;;;;;;;;;5142819;27;20038;-70
2022/10/25 10:57:44;;;;;;;9.13;3.03;;;;;;;;;;5136531;27;20038;-70
2022/10/25 11:00:20;;;;;;;13.68;3.45;;;;;;;;;;5136356;27;20107;-71
2022/10/25 11:02:46;;;;;;;11.90;3.10;;;;;;;;;;5136699;27;20039;-70
2022/10/25 11:05:20;;;;;;;12.43;3.30;;;;;;;;;;5136421;27;20072;-70
2022/10/25 11:07:51;;;;;;;11.25;2.95;;;;;;;;;;5139811;27;20436;-70
2022/10/25 11:10:22;;;;;;;11.85;2.80;;;;;;;;;;5154693;27;20042;-70
2022/10/25 11:13:22;;;;;;;10.17;2.40;;;;;;;;;;5155761;27;20385;-70
2022/10/25 11:16:00;;;;;;;14.60;3.08;;;;;;;;;;5109729;27;20719;-70
2022/10/25 11:19:02;;;;;;;14.25;3.05;;;;;;;;;;5118905;27;20091;-70
2022/10/25 11:21:27;;;;;;;;;;;;;;;;;;5071171;28;20586;-72
2022/10/25 11:23:56;;;;;;;15.50;3.00;;;;;;;;;;5055884;28;19920;-70
2022/10/25 11:26:27;;;;;;;10.85;2.85;;;;;;;;;;5071315;28;20059;-71
2022/10/25 11:28:53;;;;;;;;;;;;;;;;;;5087732;28;20133;-70
2022/10/25 11:31:38;;;;;;;10.70;2.55;;;;;;;;;;5079721;28;20422;-70
2022/10/25 11:34:10;;;;;;;12.18;2.63;;;;;;;;;;5071921;28;20044;-70
2022/10/25 11:36:55;;;;;;;9.70;2.70;;;;;;;;;;5072227;28;20084;-69
2022/10/25 11:39:37;;;;;;;14.82;2.90;;;;;;;;;;5072391;28;20076;-70
2022/10/25 11:42:02;;;;;;;;;;;;;;;;;;5073658;28;20047;-70
2022/10/25 11:44:41;;;;;;;15.25;3.00;;;;;;;;;;5074090;28;19928;-71
2022/10/25 11:47:07;;;;;;;10.18;2.78;;;;;;;;;;5073545;28;20044;-70
2022/10/25 11:49:42;;;;;;;14.90;2.80;;;;;;;;;;5070648;28;20052;-70
2022/10/25 11:52:08;;;;;;;14.77;3.35;;;;;;;;;;5071378;28;20500;-70
2022/10/25 11:54:47;;;;;;;10.90;2.38;;;;;;;;;;5080193;27;20489;-70
2022/10/25 11:57:22;;;;;;;9.15;2.30;;;;;;;;;;5135031;27;20126;-70
2022/10/25 12:00:11;;;;;;;13.35;2.33;;;;;;;;;;5135824;27;20039;-70
2022/10/25 12:02:55;;;;;;;10.63;2.38;;;;;;;;;;5135253;27;20057;-69
2022/10/25 12:05:24;;;;;;;8.80;2.42;;;;;;;;;;5146271;27;20407;-70
2022/10/25 12:07:53;;;;;;;10.15;2.40;;;;;;;;;;5154488;27;20484;-70
2022/10/25 12:10:29;;;;;;;11.13;2.40;;;;;;;;;;5152678;27;20075;-70
2022/10/25 12:13:00;;;;;;;10.68;2.60;;;;;;;;;;5147634;27;20134;-70
2022/10/25 12:15:40;;;;;;;11.15;2.72;;;;;;;;;;5140145;27;20088;-70
2022/10/25 12:18:07;;;;;;;11.63;2.92;;;;;;;;;;5134863;27;20045;-70
2022/10/25 12:20:34;;;;;;;7.95;2.30;;;;;;;;;;5134859;27;20064;-69
2022/10/25 12:23:01;;;;;;;10.70;2.50;;;;;;;;;;5152702;27;20378;-70
2022/10/25 12:25:27;;;;;;;8.57;1.90;;;;;;;;;;5134270;27;20174;-70
2022/10/25 12:27:59;;;;;;;11.73;2.50;;;;;;;;;;5134551;27;20126;-69
2022/10/25 12:30:25;;;;;;;11.07;2.75;;;;;;;;;;5134788;27;20519;-70
2022/10/25 12:32:53;;;;;;;10.65;2.50;;;;;;;;;;5116428;27;20043;-71
2022/10/25 12:35:35;;;;;;;6.25;2.20;;;;;;;;;;5134751;27;20058;-70
2022/10/25 12:38:06;;;;;;;9.70;2.28;;;;;;;;;;5136415;27;20054;-70
2022/10/25 12:40:36;;;;;;;8.00;2.10;;;;;;;;;;5133857;27;20047;-70
2022/10/25 12:43:20;;;;;;;11.55;2.50;;;;;;;;;;5133779;27;20047;-70
2022/10/25 12:45:49;;;;;;;9.35;2.08;;;;;;;;;;5133633;27;20132;-70
2022/10/25 12:48:18;;;;;;;9.13;2.10;;;;;;;;;;5134628;27;20047;-71
2022/10/25 12:51:02;;;;;;;10.95;2.50;;;;;;;;;;5134153;27;20099;-71
2022/10/25 12:53:40;;;;;;;11.13;2.88;;;;;;;;;;5152305;27;20090;-70
2022/10/25 12:56:12;;;;;;;9.18;2.30;;;;;;;;;;5151576;27;20510;-71
2022/10/25 12:58:57;;;;;;;10.25;2.40;;;;;;;;;;5152503;27;20054;-71
2022/10/25 13:01:38;;;;;;;8.32;1.90;;;;;;;;;;5144438;27;20075;-71
2022/10/25 13:04:04;;;;;;;9.75;2.20;;;;;;;;;;5145538;27;20082;-71
2022/10/25 13:06:35;;;;;;;11.50;2.15;;;;;;;;;;5145233;27;20073;-71
2022/10/25 13:09:03;;;;;;;9.90;2.10;;;;;;;;;;5134356;27;20039;-71
2022/10/25 13:11:37;;;;;;;11.10;2.28;;;;;;;;;;5135603;27;20047;-71
2022/10/25 13:14:04;;;;;;;9.65;2.50;;;;;;;;;;5124281;27;20051;-71
2022/10/25 13:16:31;;;;;;;10.05;2.20;;;;;;;;;;5138550;27;20122;-71
2022/10/25 13:19:16;;;;;;;8.02;2.25;;;;;;;;;;5134496;27;20096;-70
2022/10/25 13:21:54;;;;;;;11.25;3.03;;;;;;;;;;5134135;27;20070;-71
2022/10/25 13:24:39;;;;;;;8.32;2.40;;;;;;;;;;5133541;27;20054;-71
2022/10/25 13:27:14;;;;;;;11.98;2.72;;;;;;;;;;5133534;27;20042;-70
2022/10/25 13:29:45;;;;;;;9.10;2.25;;;;;;;;;;5133264;27;20395;-70
2022/10/25 13:32:20;;;;;;;6.90;1.95;;;;;;;;;;5133484;27;20051;-71
2022/10/25 13:34:46;;;;;;;10.45;2.72;;;;;;;;;;5135225;27;20049;-70
2022/10/25 13:37:31;;;;;;;9.93;2.60;;;;;;;;;;5142504;27;20035;-71
2022/10/25 13:39:58;;;;;;;8.75;2.35;;;;;;;;;;5148357;27;20035;-70
2022/10/25 13:42:31;;;;;;;10.85;2.80;;;;;;;;;;5117698;27;20050;-70
2022/10/25 13:44:58;;;;;;;27.50;2.90;;;;;;;;;;5138584;27;20073;-71
2022/10/25 13:47:36;;;;;;;10.68;2.78;;;;;;;;;;5152226;27;20041;-71
2022/10/25 13:50:11;;;;;;;11.68;2.50;;;;;;;;;;5135394;27;20038;-70
2022/10/25 13:52:38;;;;;;;12.00;2.50;;;;;;;;;;5145116;27;20115;-71
2022/10/25 13:55:08;;;;;;;10.10;2.22;;;;;;;;;;5142223;27;20480;-70
2022/10/25 13:57:47;;;;;;;12.70;2.80;;;;;;;;;;5133958;27;20496;-70
2022/10/25 14:00:16;;;;;;;9.95;2.45;;;;;;;;;;5120410;27;20400;-71
2022/10/25 14:03:01;;;;;;;8.85;2.13;;;;;;;;;;5114449;27;20043;-71
2022/10/25 14:05:45;;;;;;;7.93;2.22;;;;;;;;;;5143611;27;20039;-71
2022/10/25 14:08:18;;;;;;;11.32;2.58;;;;;;;;;;5139922;27;20136;-71
2022/10/25 14:13:06;;;;;;;9.43;3.03;;;;;;;;;;5079324;27;1911599;-71
2022/10/25 14:15:39;;;;;;;8.27;2.42;;;;;;;;;;5111220;28;20051;-71
2022/10/25 14:18:06;;;;;;;11.63;2.30;;;;;;;;;;5119781;28;20047;-71
2022/10/25 14:20:34;;;;;;;8.63;2.42;;;;;;;;;;5127447;28;20092;-71
2022/10/25 14:23:05;;;;;;;8.55;2.70;;;;;;;;;;5119950;28;20036;-71
2022/10/25 14:25:31;;;;;;;;;;;;;;;;;;5119399;28;20060;-71
2022/10/25 14:28:09;;;;;;;8.63;2.50;;;;;;;;;;5110598;28;19944;-71
2022/10/25 14:30:41;;;;;;;8.63;2.75;;;;;;;;;;5109682;28;20122;-71
2022/10/25 14:33:20;;;;;;;7.13;2.10;;;;;;;;;;5109128;28;20072;-71
2022/10/25 14:35:47;;;;;;;9.63;2.40;;;;;;;;;;5121365;28;20050;-71
2022/10/25 14:38:18;;;;;;;11.13;2.60;;;;;;;;;;5129413;28;20043;-71
2022/10/25 14:40:51;;;;;;;10.82;2.90;;;;;;;;;;5127493;28;20051;-71
2022/10/25 14:43:21;;;;;;;9.63;2.60;;;;;;;;;;5128248;28;20461;-71